createdAt,value
2023-04-18T00:02:17.519Z,101183.15
2023-04-18T00:04:47.838Z,101181.61
2023-04-18T00:07:16.370Z,101178.93
2023-04-18T00:09:44.227Z,101176.64
2023-04-18T00:12:11.492Z,101172.80
2023-04-18T00:14:38.891Z,101172.39
2023-04-18T00:20:29.558Z,101170.67
2023-04-18T00:22:56.644Z,101170.80
2023-04-18T00:25:23.911Z,101171.33
2023-04-18T00:27:51.042Z,101172.94
2023-04-18T00:30:18.223Z,101171.92
2023-04-18T00:32:45.392Z,101172.38
2023-04-18T00:35:12.614Z,101178.35
2023-04-18T00:37:39.739Z,101177.25
2023-04-18T00:40:07.367Z,101173.52
2023-04-18T00:42:34.522Z,101174.23
2023-04-18T00:45:01.852Z,101173.34
2023-04-18T00:47:29.065Z,101172.02
2023-04-18T00:49:56.732Z,101170.02
2023-04-18T00:52:27.301Z,101171.41
2023-04-18T00:54:55.015Z,101170.57
2023-04-18T00:57:22.770Z,101171.92
2023-04-18T00:59:51.312Z,101170.10
2023-04-18T01:02:19.378Z,101168.00
2023-04-18T01:04:47.270Z,101171.23
2023-04-18T01:07:15.275Z,101169.54
2023-04-18T01:09:42.470Z,101169.06
2023-04-18T01:12:09.629Z,101172.54
2023-04-18T01:14:36.791Z,101173.34
2023-04-18T01:17:03.977Z,101175.11
2023-04-18T01:19:31.222Z,101177.42
2023-04-18T01:22:13.495Z,101174.69
2023-04-18T01:24:42.244Z,101175.28
2023-04-18T01:27:16.166Z,101175.19
2023-04-18T01:29:43.233Z,101177.28
2023-04-18T01:32:10.336Z,101178.35
2023-04-18T01:34:37.435Z,101175.38
2023-04-18T01:37:06.311Z,101177.20
2023-04-18T01:39:33.403Z,101180.25
2023-04-18T01:42:02.242Z,101179.16
2023-04-18T01:44:29.425Z,101181.53
2023-04-18T01:46:56.512Z,101180.02
2023-04-18T01:49:25.167Z,101181.77
2023-04-18T01:51:52.142Z,101183.64
2023-04-18T01:54:21.718Z,101182.66
2023-04-18T01:56:48.914Z,101179.11
2023-04-18T01:59:16.473Z,101179.37
2023-04-18T02:01:44.902Z,101182.39
2023-04-18T02:04:12.129Z,101179.27
2023-04-18T02:06:39.549Z,101179.30
2023-04-18T02:09:06.746Z,101178.46
2023-04-18T02:11:33.862Z,101181.13
2023-04-18T02:14:03.440Z,101181.70
2023-04-18T02:16:30.612Z,101181.31
2023-04-18T02:18:57.922Z,101179.55
2023-04-18T02:21:25.057Z,101178.26
2023-04-18T02:23:52.600Z,101175.12
2023-04-18T02:26:22.696Z,101174.81
2023-04-18T02:28:50.330Z,101173.05
2023-04-18T02:31:17.651Z,101173.45
2023-04-18T02:33:47.756Z,101172.17
2023-04-18T02:36:15.060Z,101172.33
2023-04-18T02:38:42.796Z,101172.98
2023-04-18T02:41:15.151Z,101171.59
2023-04-18T02:43:42.507Z,101168.72
2023-04-18T02:46:10.157Z,101169.54
2023-04-18T02:48:37.542Z,101166.54
2023-04-18T02:51:06.864Z,101164.65
2023-04-18T02:53:35.589Z,101162.61
2023-04-18T02:56:02.957Z,101167.03
2023-04-18T02:58:49.185Z,101166.65
2023-04-18T03:01:37.258Z,101162.69
2023-04-18T03:04:11.484Z,101164.20
2023-04-18T03:06:43.319Z,101164.77
2023-04-18T03:09:10.608Z,101164.44
2023-04-18T03:11:42.257Z,101167.08
2023-04-18T03:14:09.485Z,101170.05
2023-04-18T03:16:49.059Z,101170.39
2023-04-18T03:19:19.299Z,101166.83
2023-04-18T03:21:46.503Z,101168.89
2023-04-18T03:24:14.059Z,101170.81
2023-04-18T03:26:41.830Z,101170.20
2023-04-18T03:29:09.516Z,101171.72
2023-04-18T03:31:36.673Z,101175.48
2023-04-18T03:34:03.772Z,101172.39
2023-04-18T03:36:31.484Z,101173.72
2023-04-18T03:38:58.962Z,101174.67
2023-04-18T03:41:26.293Z,101175.08
2023-04-18T03:43:55.155Z,101175.84
2023-04-18T03:46:22.453Z,101176.67
2023-04-18T03:48:51.213Z,101174.99
2023-04-18T03:51:18.562Z,101177.83
2023-04-18T03:53:46.746Z,101177.38
2023-04-18T03:56:13.941Z,101177.86
2023-04-18T03:58:49.951Z,101177.96
2023-04-18T04:01:17.272Z,101178.53
2023-04-18T04:03:44.455Z,101176.45
2023-04-18T04:06:12.091Z,101180.69
2023-04-18T04:08:39.188Z,101179.59
2023-04-18T04:11:06.405Z,101183.27
2023-04-18T04:13:33.871Z,101186.02
2023-04-18T04:16:01.599Z,101189.66
2023-04-18T04:18:31.318Z,101187.51
2023-04-18T04:21:00.871Z,101190.17
2023-04-18T04:23:42.550Z,101188.17
2023-04-18T04:26:10.240Z,101188.27
2023-04-18T04:28:46.759Z,101191.38
2023-04-18T04:31:16.485Z,101195.63
2023-04-18T04:33:44.339Z,101195.81
2023-04-18T04:36:18.870Z,101197.09
2023-04-18T04:38:47.403Z,101197.14
2023-04-18T04:41:15.313Z,101203.62
2023-04-18T04:43:42.998Z,101205.52
2023-04-18T04:46:13.937Z,101209.50
2023-04-18T04:48:42.701Z,101207.55
2023-04-18T04:51:09.875Z,101207.48
2023-04-18T04:53:38.583Z,101210.06
2023-04-18T04:56:07.232Z,101207.50
2023-04-18T04:58:34.601Z,101207.93
2023-04-18T05:01:18.711Z,101210.70
2023-04-18T05:03:46.123Z,101211.47
2023-04-18T05:06:20.509Z,101208.75
2023-04-18T05:08:48.542Z,101211.64
2023-04-18T05:11:16.383Z,101213.06
2023-04-18T05:13:43.603Z,101213.12
2023-04-18T05:16:11.299Z,101207.64
2023-04-18T05:18:40.416Z,101207.14
2023-04-18T05:21:07.868Z,101209.10
2023-04-18T05:23:37.915Z,101210.10
2023-04-18T05:26:05.668Z,101206.39
2023-04-18T05:28:33.104Z,101206.79
2023-04-18T05:31:03.378Z,101206.38
2023-04-18T05:33:31.727Z,101209.92
2023-04-18T05:35:59.081Z,101211.17
2023-04-18T05:38:26.354Z,101210.40
2023-04-18T05:40:55.734Z,101205.26
2023-04-18T05:43:23.386Z,101205.80
2023-04-18T05:45:52.577Z,101208.56
2023-04-18T05:48:20.109Z,101209.45
2023-04-18T05:50:47.261Z,101209.36
2023-04-18T05:53:14.555Z,101207.27
2023-04-18T05:55:41.840Z,101207.45
2023-04-18T05:58:08.903Z,101205.09
2023-04-18T06:00:36.276Z,101204.77
2023-04-18T06:03:03.644Z,101204.27
2023-04-18T06:05:31.367Z,101202.27
2023-04-18T06:07:58.644Z,101207.86
2023-04-18T06:10:25.867Z,101205.46
2023-04-18T06:12:52.960Z,101205.56
2023-04-18T06:15:20.037Z,101201.83
2023-04-18T06:17:47.252Z,101203.54
2023-04-18T06:20:14.429Z,101204.81
2023-04-18T06:22:41.597Z,101205.83
2023-04-18T06:25:10.160Z,101202.77
2023-04-18T06:27:38.039Z,101202.91
2023-04-18T06:30:06.176Z,101205.98
2023-04-18T06:32:33.302Z,101209.50
2023-04-18T06:35:00.513Z,101210.19
2023-04-18T06:37:27.682Z,101210.12
2023-04-18T06:39:54.752Z,101211.98
2023-04-18T06:42:22.471Z,101208.45
2023-04-18T06:44:50.314Z,101210.03
2023-04-18T06:47:17.534Z,101211.14
2023-04-18T06:49:44.677Z,101210.54
2023-04-18T06:52:11.782Z,101208.64
2023-04-18T06:54:38.861Z,101210.65
2023-04-18T06:57:06.275Z,101213.80
2023-04-18T06:59:33.424Z,101215.64
2023-04-18T07:02:00.594Z,101214.48
2023-04-18T07:04:27.835Z,101215.27
2023-04-18T07:06:55.040Z,101215.33
2023-04-18T07:09:22.839Z,101214.16
2023-04-18T07:11:51.177Z,101215.11
2023-04-18T07:14:20.027Z,101217.33
2023-04-18T07:16:47.265Z,101216.06
2023-04-18T07:19:14.480Z,101219.63
2023-04-18T07:21:43.846Z,101222.75
2023-04-18T07:24:12.378Z,101226.31
2023-04-18T07:26:39.693Z,101228.97
2023-04-18T07:29:06.775Z,101229.43
2023-04-18T07:31:34.698Z,101230.54
2023-04-18T07:34:01.845Z,101230.46
2023-04-18T07:36:29.018Z,101229.60
2023-04-18T07:38:56.140Z,101228.21
2023-04-18T07:41:23.256Z,101229.98
2023-04-18T07:43:50.427Z,101232.41
2023-04-18T07:46:17.657Z,101232.33
2023-04-18T07:48:44.952Z,101231.20
2023-04-18T07:51:12.350Z,101232.70
2023-04-18T07:53:41.256Z,101232.02
2023-04-18T07:56:08.393Z,101233.16
2023-04-18T07:58:35.674Z,101232.08
2023-04-18T08:01:02.985Z,101230.38
2023-04-18T08:03:30.366Z,101235.17
2023-04-18T08:05:57.804Z,101228.98
2023-04-18T08:08:25.108Z,101230.93
2023-04-18T08:10:52.199Z,101228.83
2023-04-18T08:13:19.396Z,101230.60
2023-04-18T08:15:47.709Z,101227.20
2023-04-18T08:18:14.841Z,101226.17
2023-04-18T08:20:41.995Z,101228.95
2023-04-18T08:23:12.222Z,101228.03
2023-04-18T08:25:40.478Z,101221.63
2023-04-18T08:28:07.655Z,101225.42
2023-04-18T08:30:34.906Z,101227.75
2023-04-18T08:33:02.370Z,101224.77
2023-04-18T08:35:29.574Z,101225.89
2023-04-18T08:37:56.892Z,101226.20
2023-04-18T08:40:25.112Z,101221.02
2023-04-18T08:42:54.114Z,101220.52
2023-04-18T08:45:21.359Z,101222.91
2023-04-18T08:47:48.611Z,101227.47
2023-04-18T08:50:17.440Z,101227.20
2023-04-18T08:52:50.281Z,101225.23
2023-04-18T08:55:19.207Z,101229.54
2023-04-18T08:57:47.585Z,101227.95
2023-04-18T09:00:17.696Z,101229.21
2023-04-18T09:02:47.003Z,101230.19
2023-04-18T09:05:21.825Z,101229.94
2023-04-18T09:07:51.651Z,101228.86
2023-04-18T09:10:33.252Z,101227.88
2023-04-18T09:13:03.529Z,101222.90
2023-04-18T09:15:31.673Z,101222.27
2023-04-18T09:18:02.460Z,101224.55
2023-04-18T09:20:41.545Z,101221.59
2023-04-18T09:23:11.121Z,101225.35
2023-04-18T09:25:45.305Z,101225.64
2023-04-18T09:28:28.059Z,101224.39
2023-04-18T09:30:56.878Z,101225.52
2023-04-18T09:33:33.965Z,101224.27
2023-04-18T09:36:22.406Z,101224.31
2023-04-18T09:38:53.730Z,101224.20
2023-04-18T09:41:23.444Z,101222.12
2023-04-18T09:44:07.748Z,101221.27
2023-04-18T09:46:35.026Z,101226.61
2023-04-18T09:49:02.332Z,101223.73
2023-04-18T09:51:31.962Z,101225.71
2023-04-18T09:54:00.170Z,101223.66
2023-04-18T09:56:29.796Z,101224.34
2023-04-18T09:59:08.236Z,101219.76
2023-04-18T10:01:36.634Z,101217.20
2023-04-18T10:04:06.759Z,101215.65
2023-04-18T10:06:38.590Z,101213.33
2023-04-18T10:09:08.959Z,101211.02
2023-04-18T10:11:36.824Z,101207.17
2023-04-18T10:14:08.130Z,101205.19
2023-04-18T10:16:36.543Z,101202.61
2023-04-18T10:19:27.090Z,101198.92
2023-04-18T10:22:03.316Z,101195.80
2023-04-18T10:24:49.535Z,101196.59
2023-04-18T10:27:17.924Z,101195.27
2023-04-18T10:29:51.331Z,101194.11
2023-04-18T10:32:24.663Z,101192.36
2023-04-18T10:34:54.350Z,101192.40
2023-04-18T10:37:21.561Z,101190.11
2023-04-18T10:40:03.035Z,101187.46
2023-04-18T10:42:45.680Z,101189.65
2023-04-18T10:45:22.404Z,101182.05
2023-04-18T10:47:50.097Z,101181.73
2023-04-18T10:50:17.733Z,101181.62
2023-04-18T10:52:45.007Z,101177.86
2023-04-18T10:55:19.139Z,101176.56
2023-04-18T10:57:49.243Z,101177.25
2023-04-18T11:00:18.845Z,101179.54
2023-04-18T11:02:54.263Z,101181.05
2023-04-18T11:05:22.626Z,101182.04
2023-04-18T11:07:49.868Z,101181.30
2023-04-18T11:10:21.482Z,101177.33
2023-04-18T11:12:49.003Z,101171.70
2023-04-18T11:15:21.607Z,101170.31
2023-04-18T11:18:00.269Z,101163.75
2023-04-18T11:20:28.550Z,101161.70
2023-04-18T11:22:58.489Z,101161.38
2023-04-18T11:25:30.705Z,101158.52
2023-04-18T11:28:02.421Z,101148.69
2023-04-18T11:30:37.775Z,101143.48
2023-04-18T11:33:08.456Z,101147.96
2023-04-18T11:35:40.130Z,101144.17
2023-04-18T11:38:08.524Z,101145.30
2023-04-18T11:40:37.096Z,101139.80
2023-04-18T11:43:06.644Z,101135.25
2023-04-18T11:45:33.768Z,101133.54
2023-04-18T11:48:01.514Z,101137.02
2023-04-18T11:50:28.877Z,101136.78
2023-04-18T11:52:56.480Z,101134.04
2023-04-18T11:55:25.562Z,101130.37
2023-04-18T11:57:54.757Z,101128.52
2023-04-18T12:00:37.545Z,101127.39
2023-04-18T12:03:08.123Z,101119.63
2023-04-18T12:05:37.597Z,101119.65
2023-04-18T12:08:06.949Z,101114.11
2023-04-18T12:10:35.906Z,101114.08
2023-04-18T12:13:07.903Z,101111.16
2023-04-18T12:15:38.795Z,101113.39
2023-04-18T12:18:08.490Z,101106.88
2023-04-18T12:20:37.054Z,101105.94
2023-04-18T12:23:04.688Z,101101.06
2023-04-18T12:25:32.825Z,101097.81
2023-04-18T12:28:20.017Z,101093.87
2023-04-18T12:30:47.172Z,101094.45
2023-04-18T12:33:14.309Z,101091.31
2023-04-18T12:35:42.610Z,101089.40
2023-04-18T12:38:09.759Z,101090.36
2023-04-18T12:40:39.280Z,101081.67
2023-04-18T12:43:06.956Z,101077.09
2023-04-18T12:45:34.046Z,101075.33
2023-04-18T12:48:01.223Z,101072.69
2023-04-18T12:50:28.598Z,101067.31
2023-04-18T12:52:59.637Z,101068.84
2023-04-18T12:55:27.560Z,101062.69
2023-04-18T12:57:55.524Z,101063.12
2023-04-18T13:00:23.967Z,101060.02
2023-04-18T13:02:52.841Z,101057.09
2023-04-18T13:05:23.151Z,101052.80
2023-04-18T13:07:56.365Z,101049.13
2023-04-18T13:10:32.196Z,101050.95
2023-04-18T13:12:59.323Z,101048.64
2023-04-18T13:15:27.643Z,101051.05
2023-04-18T13:17:56.697Z,101048.08
2023-04-18T13:20:24.158Z,101052.16
2023-04-18T13:22:51.332Z,101048.16
2023-04-18T13:25:18.529Z,101045.88
2023-04-18T13:27:46.008Z,101046.52
2023-04-18T13:30:13.483Z,101047.93
2023-04-18T13:32:41.008Z,101043.95
2023-04-18T13:35:10.753Z,101043.92
2023-04-18T13:37:38.707Z,101040.85
2023-04-18T13:40:06.709Z,101040.67
2023-04-18T13:42:35.922Z,101033.83
2023-04-18T13:45:03.424Z,101029.12
2023-04-18T13:47:30.643Z,101027.40
2023-04-18T13:49:58.033Z,101024.77
2023-04-18T13:52:26.250Z,101028.45
2023-04-18T13:54:53.491Z,101024.83
2023-04-18T13:57:21.061Z,101017.80
2023-04-18T13:59:48.288Z,101016.24
2023-04-18T14:02:15.922Z,101013.63
2023-04-18T14:04:43.300Z,101020.11
2023-04-18T14:07:10.803Z,101016.04
2023-04-18T14:09:38.001Z,101020.29
2023-04-18T14:12:05.416Z,101027.05
2023-04-18T14:14:32.596Z,101027.30
2023-04-18T14:16:59.798Z,101025.95
2023-04-18T14:19:27.444Z,101027.71
2023-04-18T14:21:54.657Z,101032.98
2023-04-18T14:24:21.813Z,101028.59
2023-04-18T14:26:48.891Z,101027.07
2023-04-18T14:29:16.106Z,101033.70
2023-04-18T14:31:43.473Z,101032.27
2023-04-18T14:34:10.780Z,101028.62
2023-04-18T14:36:37.943Z,101030.20
2023-04-18T14:39:05.609Z,101027.73
2023-04-18T14:41:33.085Z,101027.08
2023-04-18T14:44:00.301Z,101027.02
2023-04-18T14:46:28.478Z,101023.59
2023-04-18T14:48:55.765Z,101020.38
2023-04-18T14:51:23.810Z,101018.42
2023-04-18T14:53:51.392Z,101011.92
2023-04-18T14:56:21.250Z,101010.55
2023-04-18T14:58:48.569Z,101006.41
2023-04-18T15:01:17.622Z,101009.26
2023-04-18T15:03:45.513Z,101006.52
2023-04-18T15:06:12.957Z,101006.33
2023-04-18T15:08:40.219Z,101004.54
2023-04-18T15:11:08.309Z,101005.34
2023-04-18T15:13:35.766Z,101003.05
2023-04-18T15:16:03.389Z,101004.45
2023-04-18T15:18:30.749Z,101007.17
2023-04-18T15:21:00.116Z,101008.22
2023-04-18T15:23:27.684Z,101014.93
2023-04-18T15:25:54.909Z,101012.45
2023-04-18T15:28:22.217Z,101017.27
2023-04-18T15:30:49.324Z,101015.79
2023-04-18T15:33:19.142Z,101027.08
2023-04-18T15:35:48.131Z,101027.56
2023-04-18T15:38:15.337Z,101024.28
2023-04-18T15:40:43.624Z,101028.95
2023-04-18T15:43:10.864Z,101030.37
2023-04-18T15:45:38.096Z,101031.36
2023-04-18T15:48:05.474Z,101032.97
2023-04-18T15:50:33.939Z,101029.94
2023-04-18T15:53:02.010Z,101038.83
2023-04-18T15:55:29.243Z,101038.81
2023-04-18T15:57:56.517Z,101038.91
2023-04-18T16:00:24.119Z,101036.35
2023-04-18T16:02:51.414Z,101037.20
2023-04-18T16:05:18.653Z,101037.87
2023-04-18T16:07:45.899Z,101039.30
2023-04-18T16:10:15.252Z,101039.27
2023-04-18T16:12:42.599Z,101037.98
2023-04-18T16:15:10.381Z,101041.71
2023-04-18T16:17:38.002Z,101041.86
2023-04-18T16:20:06.361Z,101037.40
2023-04-18T16:22:33.808Z,101036.28
2023-04-18T16:25:00.928Z,101040.50
2023-04-18T16:27:28.337Z,101038.23
2023-04-18T16:29:55.396Z,101046.45
2023-04-18T16:32:22.633Z,101050.15
2023-04-18T16:34:49.935Z,101047.76
2023-04-18T16:37:17.158Z,101049.74
2023-04-18T16:39:44.207Z,101050.64
2023-04-18T16:42:12.468Z,101053.42
2023-04-18T16:44:41.230Z,101051.14
2023-04-18T16:47:08.452Z,101055.85
2023-04-18T16:49:35.852Z,101060.04
2023-04-18T16:52:03.024Z,101064.04
2023-04-18T16:54:30.150Z,101059.29
2023-04-18T16:56:57.327Z,101062.18
2023-04-18T16:59:24.463Z,101066.61
2023-04-18T17:01:51.527Z,101061.98
2023-04-18T17:04:18.769Z,101064.73
2023-04-18T17:06:46.694Z,101067.98
2023-04-18T17:09:14.772Z,101064.61
2023-04-18T17:11:42.176Z,101067.45
2023-04-18T17:14:09.622Z,101064.51
2023-04-18T17:16:40.967Z,101066.54
2023-04-18T17:19:09.040Z,101065.31
2023-04-18T17:21:36.979Z,101066.00
2023-04-18T17:24:06.781Z,101063.62
2023-04-18T17:26:34.940Z,101065.19
2023-04-18T17:29:04.313Z,101067.77
2023-04-18T17:31:31.914Z,101069.11
2023-04-18T17:33:59.712Z,101068.58
2023-04-18T17:36:27.301Z,101068.39
2023-04-18T17:38:54.504Z,101065.52
2023-04-18T17:41:22.309Z,101067.80
2023-04-18T17:43:53.188Z,101067.50
2023-04-18T17:46:20.466Z,101067.82
2023-04-18T17:48:47.542Z,101069.08
2023-04-18T17:51:16.559Z,101068.93
2023-04-18T17:53:43.676Z,101067.84
2023-04-18T17:56:11.007Z,101069.55
2023-04-18T17:58:38.181Z,101069.73
2023-04-18T18:01:14.914Z,101066.72
2023-04-18T18:03:43.130Z,101067.85
2023-04-18T18:06:14.530Z,101066.57
2023-04-18T18:08:43.429Z,101067.83
2023-04-18T18:11:11.120Z,101066.02
2023-04-18T18:13:40.962Z,101064.35
2023-04-18T18:16:09.050Z,101064.66
2023-04-18T18:18:36.977Z,101064.32
2023-04-18T18:21:04.107Z,101061.59
2023-04-18T18:23:31.401Z,101060.37
2023-04-18T18:25:58.730Z,101059.44
2023-04-18T18:28:26.097Z,101056.69
2023-04-18T18:30:53.989Z,101054.35
2023-04-18T18:33:21.271Z,101054.83
2023-04-18T18:35:48.458Z,101055.02
2023-04-18T18:38:15.720Z,101056.58
2023-04-18T18:40:42.880Z,101052.94
2023-04-18T18:43:09.992Z,101051.42
2023-04-18T18:45:38.243Z,101052.95
2023-04-18T18:48:07.339Z,101052.84
2023-04-18T18:50:34.606Z,101049.65
2023-04-18T18:53:01.988Z,101047.17
2023-04-18T18:55:29.973Z,101047.84
2023-04-18T18:57:57.127Z,101049.09
2023-04-18T19:00:24.913Z,101044.27
2023-04-18T19:02:52.279Z,101044.44
2023-04-18T19:05:19.823Z,101040.02
2023-04-18T19:07:46.877Z,101036.42
2023-04-18T19:10:14.052Z,101038.01
2023-04-18T19:12:41.352Z,101034.33
2023-04-18T19:15:09.372Z,101032.60
2023-04-18T19:17:36.649Z,101029.92
2023-04-18T19:20:04.269Z,101031.77
2023-04-18T19:22:31.361Z,101031.95
2023-04-18T19:25:00.532Z,101030.44
2023-04-18T19:27:27.685Z,101028.34
2023-04-18T19:29:54.685Z,101031.91
2023-04-18T19:32:22.024Z,101033.85
2023-04-18T19:34:49.806Z,101036.34
2023-04-18T19:37:16.939Z,101029.03
2023-04-18T19:39:44.133Z,101031.16
2023-04-18T19:42:11.354Z,101030.86
2023-04-18T19:44:38.510Z,101028.14
2023-04-18T19:47:05.761Z,101030.80
2023-04-18T19:49:32.973Z,101028.51
2023-04-18T19:52:00.109Z,101025.63
2023-04-18T19:54:27.497Z,101021.17
2023-04-18T19:56:54.693Z,101025.73
2023-04-18T19:59:21.847Z,101020.65
2023-04-18T20:01:48.976Z,101015.90
2023-04-18T20:04:16.277Z,101016.96
2023-04-18T20:06:43.769Z,101014.65
2023-04-18T20:09:15.549Z,101011.11
2023-04-18T20:11:43.596Z,101009.23
2023-04-18T20:14:10.644Z,101011.14
2023-04-18T20:16:39.101Z,101011.73
2023-04-18T20:19:06.314Z,101005.95
2023-04-18T20:21:33.387Z,101004.25
2023-04-18T20:24:00.489Z,101002.84
2023-04-18T20:26:27.627Z,101001.81
2023-04-18T20:28:54.781Z,101002.66
2023-04-18T20:31:21.862Z,100999.16
2023-04-18T20:33:48.975Z,100996.95
2023-04-18T20:36:17.729Z,100999.02
2023-04-18T20:38:44.976Z,100993.55
2023-04-18T20:41:15.039Z,100999.20
2023-04-18T20:43:43.524Z,100999.81
2023-04-18T20:46:14.161Z,100996.75
2023-04-18T20:48:41.280Z,100995.99
2023-04-18T20:51:08.470Z,100995.34
2023-04-18T20:53:35.818Z,100994.73
2023-04-18T20:56:03.216Z,100991.48
2023-04-18T20:58:30.342Z,100989.85
2023-04-18T21:00:57.414Z,100992.36
2023-04-18T21:03:24.703Z,100987.09
2023-04-18T21:05:52.650Z,100988.42
2023-04-18T21:08:19.798Z,100987.33
2023-04-18T21:10:46.906Z,100985.52
2023-04-18T21:13:14.171Z,100979.63
2023-04-18T21:15:42.720Z,100977.06
2023-04-18T21:18:09.987Z,100977.11
2023-04-18T21:20:38.678Z,100976.97
2023-04-18T21:23:06.527Z,100972.04
2023-04-18T21:25:33.650Z,100971.91
2023-04-18T21:28:00.898Z,100971.13
2023-04-18T21:30:28.001Z,100971.73
2023-04-18T21:32:55.210Z,100970.91
2023-04-18T21:35:24.229Z,100970.63
2023-04-18T21:37:51.939Z,100967.27
2023-04-18T21:40:19.114Z,100966.60
2023-04-18T21:42:47.680Z,100961.21
2023-04-18T21:45:16.429Z,100960.02
2023-04-18T21:47:44.042Z,100956.87
2023-04-18T21:50:11.597Z,100955.60
2023-04-18T21:52:38.762Z,100957.50
2023-04-18T21:55:06.258Z,100955.34
2023-04-18T21:57:33.431Z,100949.61
2023-04-18T22:00:00.592Z,100949.58
2023-04-18T22:02:27.912Z,100947.66
2023-04-18T22:04:55.400Z,100940.94
2023-04-18T22:07:24.716Z,100941.61
2023-04-18T22:09:51.848Z,100938.62
2023-04-18T22:12:19.348Z,100938.34
2023-04-18T22:14:48.613Z,100933.64
2023-04-18T22:17:15.814Z,100932.53
2023-04-18T22:19:44.646Z,100931.71
2023-04-18T22:22:11.936Z,100933.13
2023-04-18T22:24:39.040Z,100929.90
2023-04-18T22:27:06.225Z,100926.63
2023-04-18T22:29:33.331Z,100923.52
2023-04-18T22:32:00.495Z,100925.12
2023-04-18T22:34:27.611Z,100921.10
2023-04-18T22:36:54.771Z,100920.93
2023-04-18T22:39:21.904Z,100919.91
2023-04-18T22:41:48.945Z,100922.73
2023-04-18T22:44:16.333Z,100917.28
2023-04-18T22:46:43.801Z,100920.34
2023-04-18T22:49:10.894Z,100915.23
2023-04-18T22:51:38.333Z,100911.13
2023-04-18T22:54:05.774Z,100911.14
2023-04-18T22:56:32.890Z,100906.73
2023-04-18T22:59:00.055Z,100901.54
2023-04-18T23:01:27.458Z,100897.12
2023-04-18T23:03:54.777Z,100893.92
2023-04-18T23:06:22.376Z,100888.23
2023-04-18T23:08:49.960Z,100889.30
2023-04-18T23:11:17.139Z,100884.23
2023-04-18T23:13:44.218Z,100880.66
2023-04-18T23:16:11.377Z,100876.70
2023-04-18T23:18:38.489Z,100871.58
2023-04-18T23:21:06.108Z,100866.85
2023-04-18T23:23:33.285Z,100864.73
2023-04-18T23:26:00.702Z,100863.02
2023-04-18T23:28:27.874Z,100862.36
2023-04-18T23:30:54.963Z,100862.53
2023-04-18T23:33:22.506Z,100863.48
2023-04-18T23:35:49.595Z,100864.45
2023-04-18T23:38:16.757Z,100866.44
2023-04-18T23:40:43.899Z,100860.37
2023-04-18T23:43:10.979Z,100856.98
2023-04-18T23:45:38.102Z,100856.94
2023-04-18T23:48:05.428Z,100855.76
2023-04-18T23:50:32.994Z,100849.08
2023-04-18T23:53:00.117Z,100849.58
2023-04-18T23:55:27.465Z,100846.05
2023-04-18T23:57:54.727Z,100839.05
